Time;durP1;ratioP1;P1;durP2;ratioP2;P2;SDS_P1;SDS_P2;PMS_P1;PMS_P2;Temp;Humidity;BMP_temperature;BMP_pressure;BME280_temperature;BME280_humidity;BME280_pressure;Samples;Min_cycle;Max_cycle;Signal;HPM_P1;HPM_P2
2022/07/09 00:00:22;;;;;;;2.03;0.90;;;22.20;77.70;;;;;;4993042;28;20030;-69
2022/07/09 00:02:47;;;;;;;2.10;0.88;;;22.20;78.20;;;;;;4993484;28;20043;-70
2022/07/09 00:05:13;;;;;;;1.58;0.88;;;22.10;78.80;;;;;;4989903;28;20070;-70
2022/07/09 00:07:39;;;;;;;2.67;1.20;;;22.20;78.70;;;;;;4993336;28;20382;-70
2022/07/09 00:10:06;;;;;;;1.70;1.10;;;22.10;77.90;;;;;;4993286;28;20019;-70
2022/07/09 00:12:31;;;;;;;2.85;1.10;;;22.10;78.60;;;;;;4996571;28;20033;-70
2022/07/09 00:14:57;;;;;;;2.55;1.17;;;22.10;78.10;;;;;;4992913;28;20018;-70
2022/07/09 00:17:23;;;;;;;2.50;1.00;;;22.10;78.40;;;;;;4993686;28;20034;-70
2022/07/09 00:19:49;;;;;;;6.85;1.10;;;22.10;77.80;;;;;;4990892;28;20022;-70
2022/07/09 00:22:14;;;;;;;1.50;0.98;;;22.10;77.80;;;;;;4986048;28;20113;-70
2022/07/09 00:24:40;;;;;;;1.67;1.10;;;22.00;77.60;;;;;;4988865;28;20054;-70
2022/07/09 00:27:06;;;;;;;1.88;1.05;;;22.00;77.80;;;;;;4989585;28;20068;-70
2022/07/09 00:29:32;;;;;;;2.33;0.93;;;22.00;78.50;;;;;;4985749;28;20030;-70
2022/07/09 00:31:57;;;;;;;2.22;1.10;;;22.00;78.10;;;;;;4992592;28;20023;-70
2022/07/09 00:34:23;;;;;;;6.47;0.95;;;21.90;77.50;;;;;;4989768;28;20034;-70
2022/07/09 00:36:49;;;;;;;3.45;1.05;;;21.90;77.80;;;;;;4989830;28;20077;-71
2022/07/09 00:39:14;;;;;;;2.95;1.15;;;21.90;78.10;;;;;;4976376;28;20041;-70
2022/07/09 00:41:40;;;;;;;2.65;0.95;;;21.80;77.70;;;;;;4992553;28;20134;-70
2022/07/09 00:44:06;;;;;;;1.77;1.00;;;21.80;77.80;;;;;;4989740;28;20026;-70
2022/07/09 00:46:31;;;;;;;2.88;1.00;;;21.80;78.00;;;;;;4989551;28;20038;-70
2022/07/09 00:49:03;;;;;;;1.83;0.80;;;21.80;77.50;;;;;;4988942;28;20026;-70
2022/07/09 00:51:30;;;;;;;2.28;1.13;;;21.80;77.90;;;;;;4984776;28;20022;-70
2022/07/09 00:53:56;;;;;;;2.30;1.48;;;21.70;78.20;;;;;;4989703;28;20583;-70
2022/07/09 00:56:23;;;;;;;2.08;0.90;;;21.70;78.20;;;;;;4989583;28;20026;-70
2022/07/09 00:58:51;;;;;;;2.20;1.05;;;21.60;77.80;;;;;;4989448;28;20038;-70
2022/07/09 01:01:17;;;;;;;1.80;0.80;;;21.60;77.30;;;;;;4992404;28;20038;-70
2022/07/09 01:03:42;;;;;;;4.00;1.10;;;21.60;77.30;;;;;;4987625;28;20038;-70
2022/07/09 01:06:08;;;;;;;2.40;0.93;;;21.60;78.00;;;;;;4989156;28;20030;-70
2022/07/09 01:08:34;;;;;;;2.53;1.00;;;21.50;77.70;;;;;;4988480;28;20029;-70
2022/07/09 01:11:01;;;;;;;1.45;0.98;;;21.50;77.50;;;;;;4992719;28;20393;-70
2022/07/09 01:13:26;;;;;;;2.55;1.00;;;21.50;77.80;;;;;;4989496;28;20030;-71
2022/07/09 01:15:52;;;;;;;1.98;0.98;;;21.50;77.20;;;;;;4987906;28;20022;-70
2022/07/09 01:18:19;;;;;;;2.22;1.20;;;21.40;76.80;;;;;;4987394;28;20404;-70
2022/07/09 01:20:45;;;;;;;1.67;0.95;;;21.50;77.10;;;;;;4983357;28;20027;-70
2022/07/09 01:23:11;;;;;;;4.38;1.10;;;21.40;76.90;;;;;;4981067;28;20033;-70
2022/07/09 01:25:43;;;;;;;4.00;1.20;;;21.40;77.10;;;;;;4988513;28;20033;-70
2022/07/09 01:28:09;;;;;;;2.20;1.00;;;21.40;77.10;;;;;;4987425;28;20037;-70
2022/07/09 01:30:37;;;;;;;2.58;1.35;;;21.40;76.20;;;;;;4991025;28;20038;-70
2022/07/09 01:33:03;;;;;;;2.80;1.20;;;21.40;76.60;;;;;;4989119;28;20080;-71
2022/07/09 01:35:30;;;;;;;2.80;0.95;;;21.40;77.10;;;;;;4987537;28;20029;-71
2022/07/09 01:37:56;;;;;;;1.75;1.02;;;21.50;76.70;;;;;;4991916;28;20531;-71
2022/07/09 01:40:22;;;;;;;2.33;1.05;;;21.50;76.60;;;;;;4992084;28;20034;-71
2022/07/09 01:42:48;;;;;;;1.20;0.77;;;21.40;76.60;;;;;;4994472;28;20556;-70
2022/07/09 01:45:14;;;;;;;1.77;1.05;;;21.40;76.20;;;;;;4991227;28;20117;-70
2022/07/09 01:47:40;;;;;;;1.95;1.08;;;21.40;77.10;;;;;;4991744;28;20045;-70
2022/07/09 01:50:07;;;;;;;2.65;1.10;;;21.40;76.80;;;;;;4986745;28;20366;-70
2022/07/09 01:52:33;;;;;;;1.92;1.20;;;21.40;76.80;;;;;;4991993;28;20659;-70
2022/07/09 01:54:59;;;;;;;2.78;1.20;;;21.40;76.50;;;;;;4991206;28;20033;-71
2022/07/09 01:57:26;;;;;;;2.40;1.38;;;21.40;77.20;;;;;;4991890;28;20030;-70
2022/07/09 01:59:52;;;;;;;3.70;1.15;;;21.40;76.90;;;;;;4991071;28;20030;-70
2022/07/09 02:02:18;;;;;;;4.18;1.15;;;21.30;76.60;;;;;;4994195;28;20141;-69
2022/07/09 02:04:45;;;;;;;1.70;0.90;;;21.30;76.60;;;;;;4991364;28;20037;-69
2022/07/09 02:07:11;;;;;;;1.05;0.82;;;21.30;76.20;;;;;;4986634;28;20121;-69
2022/07/09 02:09:38;;;;;;;3.22;1.00;;;21.30;77.00;;;;;;4991594;28;20152;-69
2022/07/09 02:12:04;;;;;;;2.40;1.08;;;21.30;76.20;;;;;;4980369;28;20031;-69
2022/07/09 02:14:31;;;;;;;5.43;1.23;;;21.30;76.10;;;;;;4991235;28;20489;-70
2022/07/09 02:16:56;;;;;;;2.47;1.20;;;21.30;75.90;;;;;;4989763;28;20033;-69
2022/07/09 02:19:22;;;;;;;1.77;0.90;;;21.30;75.10;;;;;;4991440;28;20034;-69
2022/07/09 02:21:48;;;;;;;2.42;0.98;;;21.30;74.80;;;;;;4991195;28;20023;-69
2022/07/09 02:24:15;;;;;;;1.73;0.98;;;21.30;76.00;;;;;;4991149;28;20481;-69
2022/07/09 02:26:40;;;;;;;1.35;0.80;;;21.30;75.40;;;;;;4991142;28;20030;-69
2022/07/09 02:29:07;;;;;;;4.05;1.08;;;21.20;76.30;;;;;;4991646;28;20034;-69
2022/07/09 02:31:33;;;;;;;2.08;1.20;;;21.30;75.10;;;;;;4998800;28;20624;-69
2022/07/09 02:33:58;;;;;;;2.45;1.15;;;21.20;75.10;;;;;;4995389;28;20148;-69
2022/07/09 02:36:24;;;;;;;1.63;0.90;;;21.20;75.10;;;;;;4994046;28;20022;-68
2022/07/09 02:38:50;;;;;;;3.72;1.30;;;21.30;75.90;;;;;;4995460;28;20497;-69
2022/07/09 02:41:15;;;;;;;3.30;0.82;;;21.20;75.80;;;;;;4997865;28;20624;-69
2022/07/09 02:43:43;;;;;;;4.40;1.08;;;21.20;76.40;;;;;;4995238;28;20041;-69
2022/07/09 02:46:12;;;;;;;1.77;1.13;;;21.20;76.10;;;;;;4994667;28;20080;-69
2022/07/09 02:48:38;;;;;;;2.15;0.98;;;21.20;75.50;;;;;;4994596;28;20080;-70
2022/07/09 02:51:04;;;;;;;1.85;0.90;;;21.20;75.70;;;;;;4993756;28;20038;-69
2022/07/09 02:53:30;;;;;;;2.58;1.00;;;21.10;75.50;;;;;;4995409;28;20089;-70
2022/07/09 02:55:56;;;;;;;6.07;1.10;;;21.10;76.50;;;;;;4993259;28;20481;-70
2022/07/09 02:58:21;;;;;;;1.95;0.80;;;21.10;76.60;;;;;;4993863;28;20029;-70
2022/07/09 03:00:47;;;;;;;3.20;1.10;;;21.10;76.30;;;;;;4995882;28;20030;-70
2022/07/09 03:03:13;;;;;;;1.90;1.02;;;21.00;76.70;;;;;;4993411;28;20054;-70
2022/07/09 03:05:39;;;;;;;1.80;1.00;;;21.00;76.50;;;;;;4993652;28;20031;-69
2022/07/09 03:08:05;;;;;;;2.47;1.05;;;20.90;76.70;;;;;;4993664;28;20034;-69
2022/07/09 03:10:31;;;;;;;1.52;1.00;;;20.90;76.50;;;;;;4996172;28;20026;-69
2022/07/09 03:12:57;;;;;;;2.78;1.13;;;20.90;75.60;;;;;;4995437;28;20473;-70
2022/07/09 03:15:23;;;;;;;1.60;0.77;;;20.90;76.30;;;;;;4994023;28;20080;-70
2022/07/09 03:17:49;;;;;;;1.77;1.02;;;20.80;75.80;;;;;;4993412;28;20030;-69
2022/07/09 03:20:14;;;;;;;3.53;0.80;;;20.80;76.60;;;;;;4992506;28;20243;-69
2022/07/09 03:22:40;;;;;;;2.58;1.20;;;20.70;77.70;;;;;;4993298;28;20556;-70
2022/07/09 03:25:07;;;;;;;3.08;1.88;;;20.70;76.40;;;;;;4993837;28;20018;-70
2022/07/09 03:27:33;;;;;;;1.70;1.00;;;20.70;77.00;;;;;;4993196;28;20038;-70
2022/07/09 03:29:59;;;;;;;1.55;0.80;;;20.70;76.90;;;;;;4992468;28;20034;-70
2022/07/09 03:32:25;;;;;;;1.80;0.88;;;20.60;77.10;;;;;;4997030;28;20034;-69
2022/07/09 03:34:52;;;;;;;3.30;1.10;;;20.60;76.50;;;;;;4993225;28;20030;-69
2022/07/09 03:37:18;;;;;;;3.65;1.00;;;20.50;76.50;;;;;;4990987;28;20018;-69
2022/07/09 03:39:47;;;;;;;2.38;0.82;;;20.40;77.50;;;;;;4992232;28;20033;-69
2022/07/09 03:42:13;;;;;;;2.25;0.98;;;20.40;78.10;;;;;;4994369;28;20065;-70
2022/07/09 03:44:39;;;;;;;2.80;0.98;;;20.40;78.00;;;;;;4993891;28;20485;-69
2022/07/09 03:47:06;;;;;;;3.15;1.10;;;20.30;77.10;;;;;;4992831;28;20081;-69
2022/07/09 03:49:32;;;;;;;1.48;1.05;;;20.30;77.50;;;;;;4993606;28;20034;-69
2022/07/09 03:51:58;;;;;;;4.25;1.20;;;20.30;78.00;;;;;;4993588;28;20026;-69
2022/07/09 03:54:23;;;;;;;1.33;0.93;;;20.20;78.90;;;;;;4993655;28;20393;-69
2022/07/09 03:56:50;;;;;;;1.10;0.80;;;20.20;78.70;;;;;;5001292;28;20044;-69
2022/07/09 03:59:16;;;;;;;3.97;1.00;;;20.10;78.70;;;;;;4992465;28;20452;-69
2022/07/09 04:01:42;;;;;;;1.80;0.90;;;20.10;78.90;;;;;;4994551;28;20129;-70
2022/07/09 04:04:07;;;;;;;2.13;1.05;;;20.00;78.60;;;;;;4992429;28;20108;-70
2022/07/09 04:06:33;;;;;;;2.45;1.20;;;20.00;78.90;;;;;;4993469;28;20030;-69
2022/07/09 04:09:03;;;;;;;2.25;1.00;;;20.00;79.00;;;;;;4993422;28;20539;-70
2022/07/09 04:11:30;;;;;;;2.65;1.20;;;20.00;79.40;;;;;;4991997;28;20033;-72
2022/07/09 04:13:56;;;;;;;2.08;0.80;;;20.00;79.40;;;;;;4992396;28;20019;-70
2022/07/09 04:16:22;;;;;;;3.13;1.15;;;20.00;79.70;;;;;;4989386;28;20030;-70
2022/07/09 04:18:47;;;;;;;2.00;0.98;;;20.10;79.50;;;;;;4986188;28;20485;-70
2022/07/09 04:21:13;;;;;;;3.03;1.10;;;20.10;79.50;;;;;;4991939;28;20042;-70
2022/07/09 04:23:39;;;;;;;2.47;1.15;;;20.10;79.60;;;;;;4993140;28;20027;-70
2022/07/09 04:26:04;;;;;;;1.13;0.88;;;20.20;79.40;;;;;;4991826;28;20470;-70
2022/07/09 04:28:30;;;;;;;1.40;0.70;;;20.20;78.70;;;;;;4991939;28;20429;-69
2022/07/09 04:30:56;;;;;;;3.63;1.10;;;20.20;78.10;;;;;;4995316;28;20073;-70
2022/07/09 04:33:21;;;;;;;1.85;0.82;;;20.30;78.40;;;;;;4991917;28;20027;-71
2022/07/09 04:35:47;;;;;;;5.72;0.90;;;20.30;77.00;;;;;;4992229;28;20026;-70
2022/07/09 04:38:13;;;;;;;8.35;1.63;;;20.30;79.00;;;;;;4993242;28;20057;-72
2022/07/09 04:40:40;;;;;;;9.65;1.48;;;20.40;78.80;;;;;;4995239;28;20499;-70
2022/07/09 04:43:06;;;;;;;2.17;0.98;;;20.50;79.20;;;;;;4993695;28;20168;-70
2022/07/09 04:45:34;;;;;;;2.00;1.13;;;20.50;77.80;;;;;;4990955;28;20037;-70
2022/07/09 04:48:00;;;;;;;2.03;0.93;;;20.50;78.60;;;;;;4992827;28;20026;-70
2022/07/09 04:50:26;;;;;;;3.95;1.10;;;20.50;77.90;;;;;;4990833;28;20026;-70
2022/07/09 04:52:52;;;;;;;2.67;1.00;;;20.50;78.30;;;;;;4990194;28;20030;-70
2022/07/09 04:55:18;;;;;;;2.22;0.90;;;20.60;78.80;;;;;;4992082;28;20026;-70
2022/07/09 04:57:44;;;;;;;2.33;1.10;;;20.70;78.10;;;;;;4991506;28;20124;-70
2022/07/09 05:00:11;;;;;;;5.85;1.20;;;20.70;78.30;;;;;;4990411;28;20037;-69
2022/07/09 05:02:38;;;;;;;1.40;1.00;;;20.80;78.90;;;;;;4995014;28;20049;-70
2022/07/09 05:05:06;;;;;;;2.92;1.17;;;20.80;78.40;;;;;;4992122;28;20034;-69
2022/07/09 05:07:32;;;;;;;3.45;0.95;;;20.80;79.00;;;;;;4992340;28;20189;-70
2022/07/09 05:10:00;;;;;;;2.65;1.52;;;20.90;78.90;;;;;;4992091;28;20018;-70
2022/07/09 05:12:26;;;;;;;1.23;0.98;;;20.90;78.60;;;;;;4995274;28;20022;-70
2022/07/09 05:14:51;;;;;;;1.55;0.88;;;20.90;78.90;;;;;;4991983;28;20549;-69
2022/07/09 05:17:17;;;;;;;2.35;1.00;;;21.00;78.50;;;;;;4992054;28;20089;-70
2022/07/09 05:19:43;;;;;;;1.50;1.15;;;21.00;78.40;;;;;;4991938;28;20049;-70
2022/07/09 05:22:09;;;;;;;3.40;1.00;;;21.10;78.20;;;;;;4992052;28;20026;-70
2022/07/09 05:24:34;;;;;;;1.95;1.05;;;21.20;78.70;;;;;;4991972;28;20030;-70
2022/07/09 05:27:00;;;;;;;2.38;1.05;;;21.20;78.30;;;;;;4989066;28;20066;-70
2022/07/09 05:29:26;;;;;;;2.15;1.20;;;21.30;78.00;;;;;;4992040;28;20034;-70
2022/07/09 05:31:52;;;;;;;1.60;0.88;;;21.30;77.30;;;;;;4994615;28;20389;-70
2022/07/09 05:34:18;;;;;;;4.68;1.02;;;21.40;77.60;;;;;;4991685;28;20030;-70
2022/07/09 05:36:44;;;;;;;1.13;1.00;;;21.50;77.00;;;;;;4991648;28;20042;-70
2022/07/09 05:39:10;;;;;;;1.95;0.93;;;21.50;77.30;;;;;;4990642;28;20122;-70
2022/07/09 05:41:35;;;;;;;4.72;0.95;;;21.60;75.70;;;;;;4994299;28;20030;-70
2022/07/09 05:44:04;;;;;;;2.10;1.10;;;21.60;76.20;;;;;;4990235;28;20084;-70
2022/07/09 05:46:29;;;;;;;2.33;1.10;;;21.70;75.60;;;;;;4987390;28;20031;-70
2022/07/09 05:48:55;;;;;;;2.63;1.20;;;21.70;74.90;;;;;;4991615;28;20057;-69
2022/07/09 05:51:21;;;;;;;1.63;0.80;;;21.70;75.70;;;;;;4991147;28;20389;-69
2022/07/09 05:53:47;;;;;;;2.05;1.10;;;21.80;75.70;;;;;;4991719;28;20022;-70
2022/07/09 05:56:13;;;;;;;3.38;1.00;;;21.80;75.70;;;;;;4991502;28;20032;-70
2022/07/09 05:58:39;;;;;;;1.42;0.90;;;21.90;75.30;;;;;;4991685;28;20127;-70
2022/07/09 06:01:05;;;;;;;2.15;0.80;;;22.00;75.80;;;;;;4993066;28;20018;-70
2022/07/09 06:03:31;;;;;;;4.78;0.90;;;22.00;75.20;;;;;;4991607;28;20022;-70
2022/07/09 06:05:57;;;;;;;1.80;1.00;;;22.00;75.50;;;;;;4990771;28;20437;-70
2022/07/09 06:08:24;;;;;;;2.67;1.17;;;22.10;76.20;;;;;;4991637;28;20650;-70
2022/07/09 06:10:50;;;;;;;2.58;1.10;;;22.10;75.60;;;;;;4992586;28;20109;-70
2022/07/09 06:13:16;;;;;;;7.60;1.23;;;22.20;75.80;;;;;;4991714;28;20663;-70
2022/07/09 06:15:41;;;;;;;2.05;1.15;;;22.30;74.80;;;;;;4991078;28;20027;-70
2022/07/09 06:18:07;;;;;;;0.82;0.80;;;22.30;74.60;;;;;;4991654;28;20077;-70
2022/07/09 06:20:33;;;;;;;2.95;1.10;;;22.30;75.20;;;;;;4990969;28;20728;-70
2022/07/09 06:22:58;;;;;;;2.22;1.08;;;22.40;74.30;;;;;;4991713;28;20496;-70
2022/07/09 06:25:24;;;;;;;5.22;1.00;;;22.40;73.50;;;;;;4989220;28;20641;-70
2022/07/09 06:27:50;;;;;;;1.42;0.75;;;22.40;75.20;;;;;;4991715;28;20069;-70
2022/07/09 06:30:16;;;;;;;2.10;0.98;;;22.40;74.10;;;;;;4990799;28;20026;-70
2022/07/09 06:32:41;;;;;;;1.90;1.02;;;22.50;73.90;;;;;;4993893;28;20541;-71
2022/07/09 06:35:07;;;;;;;2.60;1.05;;;22.60;74.60;;;;;;4989595;28;20037;-70
2022/07/09 06:37:33;;;;;;;4.13;1.10;;;22.50;74.50;;;;;;4991230;28;20301;-71
2022/07/09 06:39:59;;;;;;;2.60;1.00;;;22.70;74.50;;;;;;4990741;28;20061;-70
2022/07/09 06:42:25;;;;;;;2.72;1.10;;;22.70;74.10;;;;;;4992817;28;20126;-70
2022/07/09 06:44:51;;;;;;;2.97;1.00;;;22.70;74.40;;;;;;4987198;28;20041;-70
2022/07/09 06:47:17;;;;;;;1.80;0.85;;;22.80;73.90;;;;;;4988364;28;20034;-72
2022/07/09 06:49:43;;;;;;;1.27;0.90;;;22.90;74.00;;;;;;4983306;28;20393;-72
2022/07/09 06:52:09;;;;;;;3.05;0.88;;;22.90;74.60;;;;;;4987619;28;20023;-70
2022/07/09 06:54:35;;;;;;;5.93;1.13;;;22.90;76.20;;;;;;4988979;28;20188;-71
2022/07/09 06:57:02;;;;;;;1.52;0.90;;;23.10;76.40;;;;;;5000247;28;20092;-71
2022/07/09 06:59:29;;;;;;;2.17;1.10;;;23.20;74.80;;;;;;4988505;28;20052;-71
2022/07/09 07:01:55;;;;;;;2.83;1.10;;;23.30;75.90;;;;;;4985002;28;20053;-70
2022/07/09 07:04:21;;;;;;;2.05;0.80;;;23.30;74.70;;;;;;4976032;28;20027;-70
2022/07/09 07:06:48;;;;;;;1.80;0.98;;;23.30;75.30;;;;;;4985625;28;20112;-70
2022/07/09 07:09:23;;;;;;;2.55;1.17;;;23.30;75.30;;;;;;4990843;28;20041;-74
2022/07/09 07:11:49;;;;;;;3.30;1.20;;;23.40;75.10;;;;;;4993681;28;20029;-69
2022/07/09 07:14:15;;;;;;;1.63;1.00;;;23.50;75.00;;;;;;4980758;28;20031;-71
2022/07/09 07:16:42;;;;;;;3.00;1.40;;;23.50;75.60;;;;;;4989856;28;20022;-70
2022/07/09 07:19:08;;;;;;;2.88;1.30;;;23.60;74.60;;;;;;4992493;28;20057;-70
2022/07/09 07:21:34;;;;;;;2.42;0.88;;;23.60;74.20;;;;;;4991856;28;20505;-71
2022/07/09 07:24:00;;;;;;;1.92;0.98;;;23.60;73.50;;;;;;4990963;28;20034;-70
2022/07/09 07:26:27;;;;;;;5.50;1.52;;;23.70;74.00;;;;;;4992223;28;20517;-73
2022/07/09 07:28:54;;;;;;;8.35;2.03;;;23.70;72.70;;;;;;4993531;28;20038;-70
2022/07/09 07:31:19;;;;;;;10.88;1.98;;;23.80;73.60;;;;;;4988099;28;20088;-70
2022/07/09 07:33:45;;;;;;;3.42;1.35;;;23.90;74.10;;;;;;4982993;28;20034;-70
2022/07/09 07:36:11;;;;;;;7.70;2.08;;;23.90;72.80;;;;;;4994137;28;20031;-70
2022/07/09 07:38:37;;;;;;;8.48;1.00;;;24.00;73.00;;;;;;4997481;28;20050;-70
2022/07/09 07:41:03;;;;;;;1.50;1.10;;;24.00;71.40;;;;;;4995750;28;20097;-70
2022/07/09 07:43:28;;;;;;;1.73;0.93;;;24.00;71.30;;;;;;4997410;28;20034;-71
2022/07/09 07:45:54;;;;;;;3.47;1.40;;;24.10;71.00;;;;;;4993053;28;20030;-72
2022/07/09 07:48:20;;;;;;;5.07;1.25;;;24.20;72.10;;;;;;5000058;28;20037;-71
2022/07/09 07:50:46;;;;;;;2.38;1.05;;;24.30;71.90;;;;;;4991716;28;20105;-70
2022/07/09 07:53:11;;;;;;;5.30;1.30;;;24.30;71.20;;;;;;4995986;28;20023;-70
2022/07/09 07:55:37;;;;;;;1.55;0.90;;;24.30;71.70;;;;;;4986932;28;20023;-70
2022/07/09 07:58:03;;;;;;;6.35;1.20;;;24.40;70.80;;;;;;4995117;28;20020;-70
2022/07/09 08:00:29;;;;;;;2.00;1.00;;;24.30;70.50;;;;;;4998153;28;20018;-70
2022/07/09 08:02:55;;;;;;;3.38;1.33;;;24.30;70.20;;;;;;4996984;28;20113;-71
2022/07/09 08:05:20;;;;;;;2.40;1.02;;;24.40;69.60;;;;;;4992776;28;20030;-74
2022/07/09 08:07:46;;;;;;;2.03;0.90;;;24.50;70.40;;;;;;4995090;28;20129;-70
2022/07/09 08:10:12;;;;;;;2.20;0.70;;;24.50;69.90;;;;;;4999251;28;20466;-70
2022/07/09 08:12:37;;;;;;;2.85;1.00;;;24.50;69.20;;;;;;4997420;28;20137;-70
2022/07/09 08:15:04;;;;;;;1.25;1.15;;;24.60;69.10;;;;;;4992638;28;20033;-70
2022/07/09 08:17:29;;;;;;;10.48;0.90;;;24.60;69.00;;;;;;4994451;28;20022;-70
2022/07/09 08:19:55;;;;;;;3.00;1.20;;;24.70;69.50;;;;;;4992080;28;20033;-70
2022/07/09 08:22:21;;;;;;;1.55;1.00;;;24.70;68.80;;;;;;4990543;28;20042;-70
2022/07/09 08:24:46;;;;;;;2.40;0.85;;;24.70;68.80;;;;;;4989257;28;20106;-70
2022/07/09 08:27:12;;;;;;;3.30;0.93;;;24.70;68.60;;;;;;4992388;28;20124;-70
2022/07/09 08:29:38;;;;;;;1.92;0.90;;;24.80;68.60;;;;;;5001558;28;20157;-70
2022/07/09 08:32:05;;;;;;;3.05;1.13;;;24.80;69.20;;;;;;4994330;28;20021;-70
2022/07/09 08:34:30;;;;;;;1.20;1.00;;;24.90;68.30;;;;;;4991252;28;20547;-70
2022/07/09 08:36:56;;;;;;;3.10;0.80;;;24.90;68.50;;;;;;4993545;28;20105;-70
2022/07/09 08:39:22;;;;;;;1.40;1.00;;;25.00;69.60;;;;;;5000630;28;20037;-71
2022/07/09 08:41:48;;;;;;;2.28;1.08;;;25.00;68.90;;;;;;4998112;28;20077;-70
2022/07/09 08:44:14;;;;;;;1.75;0.80;;;25.00;68.80;;;;;;4992344;28;20033;-70
2022/07/09 08:46:40;;;;;;;4.55;0.82;;;25.10;69.30;;;;;;4993450;28;20544;-70
2022/07/09 08:49:07;;;;;;;11.02;1.30;;;25.10;69.40;;;;;;5000342;28;20038;-71
2022/07/09 08:51:34;;;;;;;1.63;0.85;;;25.20;69.70;;;;;;4992317;28;20026;-70
2022/07/09 08:54:01;;;;;;;2.83;1.00;;;25.30;69.50;;;;;;4999401;28;20026;-70
2022/07/09 08:56:27;;;;;;;2.33;1.02;;;25.40;68.20;;;;;;4992641;28;20480;-70
2022/07/09 08:58:52;;;;;;;1.20;0.82;;;25.40;68.50;;;;;;4987152;28;20114;-70
2022/07/09 09:01:18;;;;;;;1.90;0.73;;;25.40;68.80;;;;;;4991711;28;20060;-70
2022/07/09 09:03:46;;;;;;;2.33;0.77;;;25.50;69.10;;;;;;4994013;28;20129;-70
2022/07/09 09:06:13;;;;;;;1.00;0.63;;;25.50;68.20;;;;;;4991423;28;20113;-71
2022/07/09 09:08:41;;;;;;;1.67;0.90;;;25.60;69.10;;;;;;4994231;28;20038;-70
2022/07/09 09:11:13;;;;;;;1.08;0.73;;;25.60;68.80;;;;;;4991853;28;20109;-70
2022/07/09 09:13:46;;;;;;;2.80;0.93;;;25.70;68.80;;;;;;4994386;28;20385;-70
2022/07/09 09:16:14;;;;;;;1.75;0.90;;;25.70;68.60;;;;;;4992243;28;20018;-70
2022/07/09 09:18:44;;;;;;;1.83;0.70;;;25.70;68.10;;;;;;4998674;28;20028;-70
2022/07/09 09:21:11;;;;;;;1.80;0.90;;;25.80;68.70;;;;;;4991074;28;20433;-70
2022/07/09 09:23:40;;;;;;;1.73;0.70;;;25.90;68.80;;;;;;4978393;28;20066;-70
2022/07/09 09:26:13;;;;;;;2.45;0.75;;;25.90;67.90;;;;;;4987407;28;20023;-71
2022/07/09 09:29:05;;;;;;;4.22;1.13;;;25.90;67.80;;;;;;4994607;28;20030;-70
2022/07/09 09:31:35;;;;;;;1.35;0.88;;;25.90;68.70;;;;;;4993858;28;20045;-70
2022/07/09 09:34:12;;;;;;;2.08;0.90;;;26.00;68.50;;;;;;4989848;28;20030;-70
2022/07/09 09:36:40;;;;;;;1.10;0.88;;;26.10;68.50;;;;;;4987848;28;20027;-70
2022/07/09 09:39:22;;;;;;;2.72;0.68;;;26.20;67.40;;;;;;4996196;28;20038;-70
2022/07/09 09:42:13;;;;;;;1.95;0.80;;;26.30;66.70;;;;;;4989556;28;20022;-70
2022/07/09 09:44:42;;;;;;;4.32;1.05;;;26.30;68.00;;;;;;4980144;28;20031;-70
2022/07/09 09:47:08;;;;;;;1.02;0.80;;;26.40;68.10;;;;;;4989507;28;20058;-70
2022/07/09 09:49:41;;;;;;;1.50;0.90;;;26.40;66.50;;;;;;4996370;28;20036;-70
2022/07/09 09:52:07;;;;;;;;;;;26.60;66.70;;;;;;4991214;28;20010;-70
2022/07/09 09:54:35;;;;;;;1.10;0.80;;;26.70;66.60;;;;;;4988186;28;19910;-70
2022/07/09 09:57:06;;;;;;;1.50;0.80;;;26.70;66.20;;;;;;4984365;28;20104;-70
2022/07/09 09:59:36;;;;;;;2.28;0.80;;;26.70;66.80;;;;;;4986476;28;20025;-70
2022/07/09 10:02:04;;;;;;;1.55;0.95;;;26.80;67.30;;;;;;4982692;28;20767;-70
2022/07/09 10:04:30;;;;;;;2.75;0.70;;;26.80;65.60;;;;;;4986668;28;20077;-70
2022/07/09 10:06:55;;;;;;;2.83;0.95;;;27.00;66.10;;;;;;4984775;28;20054;-71
2022/07/09 10:09:21;;;;;;;5.57;1.00;;;27.00;66.60;;;;;;4986520;28;20034;-71
2022/07/09 10:11:48;;;;;;;1.52;0.82;;;27.10;65.00;;;;;;4989567;28;20027;-73
2022/07/09 10:14:23;;;;;;;1.33;0.82;;;27.20;65.90;;;;;;4988067;28;20629;-71
2022/07/09 10:16:49;;;;;;;5.40;1.00;;;27.30;64.60;;;;;;4987258;28;20026;-74
2022/07/09 10:19:30;;;;;;;0.65;0.60;;;27.50;65.80;;;;;;4972498;28;20551;-71
2022/07/09 10:22:00;;;;;;;1.20;0.65;;;27.60;62.80;;;;;;4986246;28;20045;-71
2022/07/09 10:24:29;;;;;;;0.90;0.57;;;27.80;62.80;;;;;;4986651;28;20034;-71
2022/07/09 10:27:12;;;;;;;4.07;1.30;;;27.70;63.50;;;;;;4985519;28;20039;-71
2022/07/09 10:30:00;;;;;;;1.33;0.80;;;27.80;63.70;;;;;;4987782;28;20037;-71
2022/07/09 10:32:26;;;;;;;1.02;0.95;;;27.80;63.70;;;;;;4987362;28;20028;-72
2022/07/09 10:35:03;;;;;;;1.85;0.70;;;27.90;63.70;;;;;;4986312;28;20077;-71
2022/07/09 10:37:31;;;;;;;2.17;1.00;;;28.10;62.50;;;;;;4984703;28;20033;-72
2022/07/09 10:40:10;;;;;;;1.50;1.20;;;28.40;63.70;;;;;;4987546;28;20105;-72
2022/07/09 10:42:36;;;;;;;6.63;1.05;;;28.70;63.60;;;;;;4990965;28;20481;-72
2022/07/09 10:45:04;;;;;;;0.90;0.80;;;28.80;61.50;;;;;;4987847;28;20037;-70
2022/07/09 10:47:38;;;;;;;1.73;0.77;;;28.90;61.70;;;;;;4989514;28;20033;-71
2022/07/09 10:50:05;;;;;;;2.00;0.80;;;28.90;62.60;;;;;;4988958;28;20030;-71
2022/07/09 10:52:31;;;;;;;1.20;0.68;;;29.00;61.20;;;;;;4990982;28;20072;-71
2022/07/09 10:54:56;;;;;;;0.90;0.70;;;29.00;61.80;;;;;;4992174;28;20448;-71
2022/07/09 10:57:22;;;;;;;1.23;0.80;;;29.00;61.60;;;;;;4994896;28;20177;-71
2022/07/09 10:59:48;;;;;;;1.45;1.13;;;29.10;61.70;;;;;;4994592;28;20030;-71
2022/07/09 11:02:18;;;;;;;1.20;0.57;;;29.30;61.50;;;;;;4996293;28;20050;-71
2022/07/09 11:04:49;;;;;;;4.47;0.80;;;29.50;60.50;;;;;;4993474;28;20116;-71
2022/07/09 11:07:27;;;;;;;1.77;0.77;;;29.60;60.40;;;;;;4991889;28;20027;-71
2022/07/09 11:09:53;;;;;;;0.88;0.60;;;29.70;60.40;;;;;;4994477;28;20026;-71
2022/07/09 11:12:21;;;;;;;2.42;0.90;;;29.80;59.90;;;;;;4996455;28;20030;-71
2022/07/09 11:14:49;;;;;;;1.58;0.90;;;30.00;59.10;;;;;;4994374;28;20022;-71
2022/07/09 11:17:19;;;;;;;1.33;0.57;;;30.00;59.10;;;;;;4993520;28;20038;-71
2022/07/09 11:19:49;;;;;;;4.85;0.82;;;30.00;58.70;;;;;;4992810;28;20441;-74
2022/07/09 11:22:15;;;;;;;3.95;1.02;;;29.90;58.50;;;;;;4992557;28;20022;-71
2022/07/09 11:24:41;;;;;;;1.45;0.98;;;29.90;60.60;;;;;;4994295;28;20054;-72
2022/07/09 11:27:08;;;;;;;2.00;0.88;;;29.90;67.50;;;;;;4994015;28;20034;-72
2022/07/09 11:29:35;;;;;;;4.13;0.80;;;29.60;67.40;;;;;;4994411;28;20026;-71
2022/07/09 11:32:02;;;;;;;3.90;1.33;;;29.50;70.10;;;;;;4992974;28;20117;-70
2022/07/09 11:34:29;;;;;;;3.65;1.10;;;28.80;71.60;;;;;;4991935;28;20033;-71
2022/07/09 11:36:57;;;;;;;1.70;0.80;;;28.20;71.80;;;;;;4993912;28;20548;-70
2022/07/09 11:39:24;;;;;;;1.33;0.73;;;27.90;72.90;;;;;;4996797;28;20089;-71
2022/07/09 11:41:50;;;;;;;2.75;1.02;;;27.90;71.40;;;;;;4991301;28;20026;-71
2022/07/09 11:44:21;;;;;;;3.45;1.25;;;27.90;71.10;;;;;;4991204;28;20030;-71
2022/07/09 11:47:03;;;;;;;2.20;1.20;;;27.90;73.30;;;;;;4992051;28;20026;-72
2022/07/09 11:49:48;;;;;;;1.27;1.00;;;27.90;75.20;;;;;;4993205;28;20441;-71
2022/07/09 11:52:20;;;;;;;2.30;1.00;;;27.60;75.60;;;;;;4991346;28;20463;-72
2022/07/09 11:54:57;;;;;;;1.85;1.00;;;27.60;73.70;;;;;;4991719;28;20031;-72
2022/07/09 11:57:23;;;;;;;2.53;1.02;;;27.50;71.90;;;;;;4990466;28;20030;-72
2022/07/09 11:59:49;;;;;;;3.70;1.05;;;27.30;71.40;;;;;;4993263;28;20053;-72
2022/07/09 12:02:24;;;;;;;1.88;1.00;;;27.30;71.20;;;;;;4993305;28;20521;-72
2022/07/09 12:04:50;;;;;;;1.75;0.90;;;27.30;70.80;;;;;;4993017;28;20077;-70
2022/07/09 12:07:15;;;;;;;0.82;0.68;;;27.20;73.10;;;;;;4995035;28;20477;-72
2022/07/09 12:09:41;;;;;;;2.03;0.90;;;26.80;74.40;;;;;;4992087;28;20536;-71
2022/07/09 12:12:07;;;;;;;1.42;0.95;;;27.60;73.10;;;;;;4995054;28;20022;-72
2022/07/09 12:14:33;;;;;;;2.15;0.90;;;28.60;71.40;;;;;;4991343;28;20393;-70
2022/07/09 12:16:58;;;;;;;3.67;0.80;;;28.60;71.20;;;;;;4992076;28;20026;-71
2022/07/09 12:19:24;;;;;;;2.38;0.80;;;29.10;69.40;;;;;;4993822;28;20069;-71
2022/07/09 12:21:50;;;;;;;1.42;0.90;;;30.00;69.70;;;;;;4993094;28;20034;-71
2022/07/09 12:24:16;;;;;;;5.72;0.98;;;30.70;66.70;;;;;;4992656;28;20062;-71
2022/07/09 12:26:42;;;;;;;1.02;0.60;;;30.90;67.60;;;;;;4993020;28;20116;-71
2022/07/09 12:29:07;;;;;;;2.90;0.80;;;31.00;70.50;;;;;;4992199;28;20464;-70
2022/07/09 12:31:36;;;;;;;4.70;0.90;;;31.20;69.70;;;;;;4991708;28;20393;-70
2022/07/09 12:34:03;;;;;;;2.33;0.90;;;31.40;70.20;;;;;;4991164;28;20076;-71
2022/07/09 12:36:29;;;;;;;2.35;1.02;;;30.90;71.10;;;;;;4988245;28;20046;-70
2022/07/09 12:38:54;;;;;;;1.55;0.70;;;30.20;72.30;;;;;;4990332;28;20069;-71
2022/07/09 12:41:20;;;;;;;1.50;0.80;;;29.80;71.90;;;;;;4988821;28;20023;-71
2022/07/09 12:43:46;;;;;;;6.57;0.90;;;29.80;73.00;;;;;;4990008;28;20724;-70
2022/07/09 12:46:12;;;;;;;1.92;0.90;;;30.00;74.00;;;;;;4988663;28;20045;-71